sensor_id;sensor_type;location;lat;lon;timestamp;P1;durP1;ratioP1;P2;durP2;ratioP2
50483;SDS011;36409;52.168;20.878;2022-08-19T00:02:11;13.27;;;8.27;;
50483;SDS011;36409;52.168;20.878;2022-08-19T00:04:40;11.60;;;9.20;;
50483;SDS011;36409;52.168;20.878;2022-08-19T00:07:09;15.97;;;9.53;;
50483;SDS011;36409;52.168;20.878;2022-08-19T00:09:40;14.07;;;9.17;;
50483;SDS011;36409;52.168;20.878;2022-08-19T00:12:24;16.97;;;9.47;;
50483;SDS011;36409;52.168;20.878;2022-08-19T00:14:54;14.00;;;9.03;;
50483;SDS011;36409;52.168;20.878;2022-08-19T00:17:24;21.27;;;9.70;;
50483;SDS011;36409;52.168;20.878;2022-08-19T00:19:53;11.17;;;8.53;;
50483;SDS011;36409;52.168;20.878;2022-08-19T00:22:22;14.23;;;9.73;;
50483;SDS011;36409;52.168;20.878;2022-08-19T00:24:51;12.95;;;9.25;;
50483;SDS011;36409;52.168;20.878;2022-08-19T00:27:24;12.03;;;9.20;;
50483;SDS011;36409;52.168;20.878;2022-08-19T00:29:54;12.57;;;9.00;;
50483;SDS011;36409;52.168;20.878;2022-08-19T00:32:38;13.40;;;9.40;;
50483;SDS011;36409;52.168;20.878;2022-08-19T00:35:08;11.87;;;9.03;;
50483;SDS011;36409;52.168;20.878;2022-08-19T00:37:39;13.03;;;9.53;;
50483;SDS011;36409;52.168;20.878;2022-08-19T00:40:22;15.77;;;10.70;;
50483;SDS011;36409;52.168;20.878;2022-08-19T00:42:57;13.60;;;9.10;;
50483;SDS011;36409;52.168;20.878;2022-08-19T00:45:27;13.43;;;9.23;;
50483;SDS011;36409;52.168;20.878;2022-08-19T00:48:03;15.37;;;8.70;;
50483;SDS011;36409;52.168;20.878;2022-08-19T00:50:45;10.63;;;9.20;;
50483;SDS011;36409;52.168;20.878;2022-08-19T00:53:23;17.47;;;9.60;;
50483;SDS011;36409;52.168;20.878;2022-08-19T00:55:59;15.17;;;9.43;;
50483;SDS011;36409;52.168;20.878;2022-08-19T00:58:34;14.63;;;9.40;;
50483;SDS011;36409;52.168;20.878;2022-08-19T01:01:06;13.77;;;9.63;;
50483;SDS011;36409;52.168;20.878;2022-08-19T01:03:41;16.80;;;10.70;;
50483;SDS011;36409;52.168;20.878;2022-08-19T01:06:32;13.50;;;9.20;;
50483;SDS011;36409;52.168;20.878;2022-08-19T01:09:44;12.57;;;9.90;;
50483;SDS011;36409;52.168;20.878;2022-08-19T01:12:14;12.40;;;9.30;;
50483;SDS011;36409;52.168;20.878;2022-08-19T01:14:56;14.07;;;9.20;;
50483;SDS011;36409;52.168;20.878;2022-08-19T01:17:30;13.33;;;9.47;;
50483;SDS011;36409;52.168;20.878;2022-08-19T01:20:25;16.93;;;10.57;;
50483;SDS011;36409;52.168;20.878;2022-08-19T01:26:13;16.00;;;10.23;;
50483;SDS011;36409;52.168;20.878;2022-08-19T01:28:54;12.97;;;9.23;;
50483;SDS011;36409;52.168;20.878;2022-08-19T01:31:36;14.70;;;9.67;;
50483;SDS011;36409;52.168;20.878;2022-08-19T01:34:06;14.83;;;10.03;;
50483;SDS011;36409;52.168;20.878;2022-08-19T01:36:50;13.90;;;9.97;;
50483;SDS011;36409;52.168;20.878;2022-08-19T01:39:59;15.27;;;9.67;;
50483;SDS011;36409;52.168;20.878;2022-08-19T01:42:31;14.80;;;9.65;;
50483;SDS011;36409;52.168;20.878;2022-08-19T01:45:04;13.07;;;9.63;;
50483;SDS011;36409;52.168;20.878;2022-08-19T01:47:36;13.07;;;9.67;;
50483;SDS011;36409;52.168;20.878;2022-08-19T01:50:33;16.73;;;10.40;;
50483;SDS011;36409;52.168;20.878;2022-08-19T01:53:12;12.67;;;9.33;;
50483;SDS011;36409;52.168;20.878;2022-08-19T01:55:42;13.70;;;9.97;;
50483;SDS011;36409;52.168;20.878;2022-08-19T01:58:17;14.50;;;9.83;;
50483;SDS011;36409;52.168;20.878;2022-08-19T02:00:52;12.50;;;9.47;;
50483;SDS011;36409;52.168;20.878;2022-08-19T02:03:27;16.10;;;9.37;;
50483;SDS011;36409;52.168;20.878;2022-08-19T02:05:59;15.70;;;9.53;;
50483;SDS011;36409;52.168;20.878;2022-08-19T02:08:46;13.63;;;10.03;;
50483;SDS011;36409;52.168;20.878;2022-08-19T02:11:57;15.67;;;9.23;;
50483;SDS011;36409;52.168;20.878;2022-08-19T02:15:20;12.97;;;9.07;;
50483;SDS011;36409;52.168;20.878;2022-08-19T02:18:40;11.50;;;8.50;;
50483;SDS011;36409;52.168;20.878;2022-08-19T02:21:24;17.87;;;9.37;;
50483;SDS011;36409;52.168;20.878;2022-08-19T02:23:53;11.27;;;9.03;;
50483;SDS011;36409;52.168;20.878;2022-08-19T02:26:34;14.03;;;9.20;;
50483;SDS011;36409;52.168;20.878;2022-08-19T02:29:16;13.63;;;8.93;;
50483;SDS011;36409;52.168;20.878;2022-08-19T02:31:49;14.27;;;9.47;;
50483;SDS011;36409;52.168;20.878;2022-08-19T02:34:19;14.30;;;8.83;;
50483;SDS011;36409;52.168;20.878;2022-08-19T02:37:36;14.77;;;8.97;;
50483;SDS011;36409;52.168;20.878;2022-08-19T02:40:29;15.53;;;8.97;;
50483;SDS011;36409;52.168;20.878;2022-08-19T02:43:01;13.00;;;8.83;;
50483;SDS011;36409;52.168;20.878;2022-08-19T02:45:36;15.50;;;9.13;;
50483;SDS011;36409;52.168;20.878;2022-08-19T02:48:25;11.73;;;9.00;;
50483;SDS011;36409;52.168;20.878;2022-08-19T02:50:55;14.50;;;9.77;;
50483;SDS011;36409;52.168;20.878;2022-08-19T02:53:53;14.23;;;8.57;;
50483;SDS011;36409;52.168;20.878;2022-08-19T02:56:34;16.27;;;9.53;;
50483;SDS011;36409;52.168;20.878;2022-08-19T02:59:05;19.10;;;9.53;;
50483;SDS011;36409;52.168;20.878;2022-08-19T03:01:54;17.83;;;10.07;;
50483;SDS011;36409;52.168;20.878;2022-08-19T03:08:56;15.33;;;10.27;;
50483;SDS011;36409;52.168;20.878;2022-08-19T03:11:48;12.93;;;9.63;;
50483;SDS011;36409;52.168;20.878;2022-08-19T03:14:19;14.10;;;10.07;;
50483;SDS011;36409;52.168;20.878;2022-08-19T03:21:03;14.47;;;9.57;;
50483;SDS011;36409;52.168;20.878;2022-08-19T03:28:33;16.70;;;10.07;;
50483;SDS011;36409;52.168;20.878;2022-08-19T03:31:04;15.43;;;9.90;;
50483;SDS011;36409;52.168;20.878;2022-08-19T03:34:53;14.10;;;9.97;;
50483;SDS011;36409;52.168;20.878;2022-08-19T03:37:38;16.33;;;10.50;;
50483;SDS011;36409;52.168;20.878;2022-08-19T03:44:25;13.70;;;10.50;;
50483;SDS011;36409;52.168;20.878;2022-08-19T03:47:24;13.43;;;10.00;;
50483;SDS011;36409;52.168;20.878;2022-08-19T03:51:00;12.37;;;9.53;;
50483;SDS011;36409;52.168;20.878;2022-08-19T03:54:07;22.00;;;10.87;;
50483;SDS011;36409;52.168;20.878;2022-08-19T03:56:43;14.83;;;10.20;;
50483;SDS011;36409;52.168;20.878;2022-08-19T03:59:25;15.27;;;10.47;;
50483;SDS011;36409;52.168;20.878;2022-08-19T04:02:15;15.57;;;10.00;;
50483;SDS011;36409;52.168;20.878;2022-08-19T04:05:30;15.00;;;9.87;;
50483;SDS011;36409;52.168;20.878;2022-08-19T04:11:14;14.30;;;9.63;;
50483;SDS011;36409;52.168;20.878;2022-08-19T04:13:47;14.30;;;9.90;;
50483;SDS011;36409;52.168;20.878;2022-08-19T04:16:19;15.97;;;10.80;;
50483;SDS011;36409;52.168;20.878;2022-08-19T04:19:18;15.83;;;9.87;;
50483;SDS011;36409;52.168;20.878;2022-08-19T04:21:48;17.60;;;10.20;;
50483;SDS011;36409;52.168;20.878;2022-08-19T04:24:24;15.33;;;10.57;;
50483;SDS011;36409;52.168;20.878;2022-08-19T04:26:56;13.60;;;10.50;;
50483;SDS011;36409;52.168;20.878;2022-08-19T04:29:27;16.77;;;10.23;;
50483;SDS011;36409;52.168;20.878;2022-08-19T04:32:01;15.10;;;10.80;;
50483;SDS011;36409;52.168;20.878;2022-08-19T04:34:54;15.93;;;10.37;;
50483;SDS011;36409;52.168;20.878;2022-08-19T04:37:43;17.30;;;10.70;;
50483;SDS011;36409;52.168;20.878;2022-08-19T04:40:12;21.47;;;10.17;;
50483;SDS011;36409;52.168;20.878;2022-08-19T04:43:06;13.17;;;10.13;;
50483;SDS011;36409;52.168;20.878;2022-08-19T04:45:36;14.27;;;10.63;;
50483;SDS011;36409;52.168;20.878;2022-08-19T04:48:11;19.57;;;10.00;;
50483;SDS011;36409;52.168;20.878;2022-08-19T04:50:56;13.07;;;10.40;;
50483;SDS011;36409;52.168;20.878;2022-08-19T04:53:34;14.57;;;9.70;;
50483;SDS011;36409;52.168;20.878;2022-08-19T04:56:09;16.10;;;9.90;;
50483;SDS011;36409;52.168;20.878;2022-08-19T04:58:48;15.58;;;10.05;;
50483;SDS011;36409;52.168;20.878;2022-08-19T05:01:42;13.47;;;10.60;;
50483;SDS011;36409;52.168;20.878;2022-08-19T05:04:11;14.40;;;9.73;;
50483;SDS011;36409;52.168;20.878;2022-08-19T05:06:40;14.70;;;10.05;;
50483;SDS011;36409;52.168;20.878;2022-08-19T05:09:10;16.77;;;10.73;;
50483;SDS011;36409;52.168;20.878;2022-08-19T05:11:38;16.30;;;9.93;;
50483;SDS011;36409;52.168;20.878;2022-08-19T05:14:07;16.33;;;9.67;;
50483;SDS011;36409;52.168;20.878;2022-08-19T05:16:39;16.90;;;11.17;;
50483;SDS011;36409;52.168;20.878;2022-08-19T05:19:08;16.50;;;10.07;;
50483;SDS011;36409;52.168;20.878;2022-08-19T05:22:00;13.50;;;9.07;;
50483;SDS011;36409;52.168;20.878;2022-08-19T05:24:47;14.30;;;9.73;;
50483;SDS011;36409;52.168;20.878;2022-08-19T05:27:36;11.37;;;8.73;;
50483;SDS011;36409;52.168;20.878;2022-08-19T05:30:05;11.83;;;9.13;;
50483;SDS011;36409;52.168;20.878;2022-08-19T05:32:35;14.77;;;9.67;;
50483;SDS011;36409;52.168;20.878;2022-08-19T05:35:04;14.87;;;10.37;;
50483;SDS011;36409;52.168;20.878;2022-08-19T05:37:35;16.07;;;9.77;;
50483;SDS011;36409;52.168;20.878;2022-08-19T05:40:04;14.00;;;10.17;;
50483;SDS011;36409;52.168;20.878;2022-08-19T05:42:34;15.10;;;10.20;;
50483;SDS011;36409;52.168;20.878;2022-08-19T05:45:03;16.97;;;9.63;;
50483;SDS011;36409;52.168;20.878;2022-08-19T05:47:32;12.77;;;9.67;;
50483;SDS011;36409;52.168;20.878;2022-08-19T05:50:08;14.80;;;9.30;;
50483;SDS011;36409;52.168;20.878;2022-08-19T05:52:37;13.30;;;9.20;;
50483;SDS011;36409;52.168;20.878;2022-08-19T05:55:16;17.37;;;9.83;;
50483;SDS011;36409;52.168;20.878;2022-08-19T05:57:48;14.55;;;9.60;;
50483;SDS011;36409;52.168;20.878;2022-08-19T06:00:17;16.10;;;10.20;;
50483;SDS011;36409;52.168;20.878;2022-08-19T06:02:51;14.43;;;9.03;;
50483;SDS011;36409;52.168;20.878;2022-08-19T06:05:22;17.83;;;9.43;;
50483;SDS011;36409;52.168;20.878;2022-08-19T06:07:50;12.60;;;9.23;;
50483;SDS011;36409;52.168;20.878;2022-08-19T06:10:19;18.80;;;9.23;;
50483;SDS011;36409;52.168;20.878;2022-08-19T06:12:48;16.03;;;8.07;;
50483;SDS011;36409;52.168;20.878;2022-08-19T06:15:17;15.90;;;8.87;;
50483;SDS011;36409;52.168;20.878;2022-08-19T06:17:45;12.10;;;8.83;;
50483;SDS011;36409;52.168;20.878;2022-08-19T06:20:14;16.83;;;8.33;;
50483;SDS011;36409;52.168;20.878;2022-08-19T06:22:56;16.57;;;8.30;;
50483;SDS011;36409;52.168;20.878;2022-08-19T06:25:26;14.33;;;8.23;;
50483;SDS011;36409;52.168;20.878;2022-08-19T06:27:57;14.90;;;8.87;;
50483;SDS011;36409;52.168;20.878;2022-08-19T06:30:41;17.60;;;8.23;;
50483;SDS011;36409;52.168;20.878;2022-08-19T06:33:10;11.87;;;8.30;;
50483;SDS011;36409;52.168;20.878;2022-08-19T06:35:39;16.83;;;8.70;;
50483;SDS011;36409;52.168;20.878;2022-08-19T06:38:09;15.63;;;8.13;;
50483;SDS011;36409;52.168;20.878;2022-08-19T06:40:38;13.53;;;7.40;;
50483;SDS011;36409;52.168;20.878;2022-08-19T06:43:06;19.00;;;8.00;;
50483;SDS011;36409;52.168;20.878;2022-08-19T06:45:37;12.83;;;7.87;;
50483;SDS011;36409;52.168;20.878;2022-08-19T06:48:06;15.13;;;7.93;;
50483;SDS011;36409;52.168;20.878;2022-08-19T06:50:34;12.93;;;7.93;;
50483;SDS011;36409;52.168;20.878;2022-08-19T06:53:07;11.70;;;8.10;;
50483;SDS011;36409;52.168;20.878;2022-08-19T06:55:36;11.57;;;7.63;;
50483;SDS011;36409;52.168;20.878;2022-08-19T06:58:04;11.93;;;7.87;;
50483;SDS011;36409;52.168;20.878;2022-08-19T07:00:33;11.87;;;8.00;;
50483;SDS011;36409;52.168;20.878;2022-08-19T07:03:02;11.27;;;7.00;;
50483;SDS011;36409;52.168;20.878;2022-08-19T07:08:12;12.17;;;7.50;;
50483;SDS011;36409;52.168;20.878;2022-08-19T07:10:43;13.57;;;8.10;;
50483;SDS011;36409;52.168;20.878;2022-08-19T07:13:12;11.93;;;7.10;;
50483;SDS011;36409;52.168;20.878;2022-08-19T07:15:41;18.10;;;7.57;;
50483;SDS011;36409;52.168;20.878;2022-08-19T07:18:10;15.47;;;7.43;;
50483;SDS011;36409;52.168;20.878;2022-08-19T07:20:39;11.90;;;7.13;;
50483;SDS011;36409;52.168;20.878;2022-08-19T07:23:10;11.30;;;6.93;;
50483;SDS011;36409;52.168;20.878;2022-08-19T07:25:43;12.15;;;7.00;;
50483;SDS011;36409;52.168;20.878;2022-08-19T07:28:19;14.47;;;6.97;;
50483;SDS011;36409;52.168;20.878;2022-08-19T07:30:51;11.40;;;6.85;;
50483;SDS011;36409;52.168;20.878;2022-08-19T07:33:22;10.97;;;6.37;;
50483;SDS011;36409;52.168;20.878;2022-08-19T07:35:54;15.95;;;6.72;;
50483;SDS011;36409;52.168;20.878;2022-08-19T07:38:23;7.83;;;6.67;;
50483;SDS011;36409;52.168;20.878;2022-08-19T07:40:53;12.17;;;6.53;;
50483;SDS011;36409;52.168;20.878;2022-08-19T07:43:22;10.90;;;7.03;;
50483;SDS011;36409;52.168;20.878;2022-08-19T07:46:01;11.30;;;6.57;;
50483;SDS011;36409;52.168;20.878;2022-08-19T07:48:31;13.03;;;6.77;;
50483;SDS011;36409;52.168;20.878;2022-08-19T07:51:00;10.57;;;6.63;;
50483;SDS011;36409;52.168;20.878;2022-08-19T07:53:34;15.73;;;6.97;;
50483;SDS011;36409;52.168;20.878;2022-08-19T07:56:06;16.50;;;6.53;;
50483;SDS011;36409;52.168;20.878;2022-08-19T07:58:37;12.13;;;6.53;;
50483;SDS011;36409;52.168;20.878;2022-08-19T08:01:09;16.27;;;7.23;;
50483;SDS011;36409;52.168;20.878;2022-08-19T08:03:40;11.10;;;7.17;;
50483;SDS011;36409;52.168;20.878;2022-08-19T08:06:28;10.00;;;6.50;;
50483;SDS011;36409;52.168;20.878;2022-08-19T08:09:16;15.47;;;7.20;;
50483;SDS011;36409;52.168;20.878;2022-08-19T08:11:51;16.53;;;7.47;;
50483;SDS011;36409;52.168;20.878;2022-08-19T08:14:29;13.17;;;6.90;;
50483;SDS011;36409;52.168;20.878;2022-08-19T08:19:38;14.97;;;6.43;;
50483;SDS011;36409;52.168;20.878;2022-08-19T08:22:09;11.37;;;7.30;;
50483;SDS011;36409;52.168;20.878;2022-08-19T08:25:01;10.77;;;6.77;;
50483;SDS011;36409;52.168;20.878;2022-08-19T08:27:35;10.77;;;6.80;;
50483;SDS011;36409;52.168;20.878;2022-08-19T08:30:09;9.83;;;6.70;;
50483;SDS011;36409;52.168;20.878;2022-08-19T08:32:42;11.70;;;7.40;;
50483;SDS011;36409;52.168;20.878;2022-08-19T08:35:14;12.75;;;6.60;;
50483;SDS011;36409;52.168;20.878;2022-08-19T08:37:44;19.47;;;7.20;;
50483;SDS011;36409;52.168;20.878;2022-08-19T08:42:50;11.90;;;7.37;;
50483;SDS011;36409;52.168;20.878;2022-08-19T08:45:22;11.57;;;6.63;;
50483;SDS011;36409;52.168;20.878;2022-08-19T08:47:52;10.17;;;6.07;;
50483;SDS011;36409;52.168;20.878;2022-08-19T08:50:27;12.63;;;6.83;;
50483;SDS011;36409;52.168;20.878;2022-08-19T08:53:03;12.07;;;7.03;;
50483;SDS011;36409;52.168;20.878;2022-08-19T08:55:35;10.88;;;6.80;;
50483;SDS011;36409;52.168;20.878;2022-08-19T08:58:08;13.13;;;7.17;;
50483;SDS011;36409;52.168;20.878;2022-08-19T09:00:44;10.07;;;7.20;;
50483;SDS011;36409;52.168;20.878;2022-08-19T09:03:16;15.00;;;6.73;;
50483;SDS011;36409;52.168;20.878;2022-08-19T09:05:52;14.30;;;6.27;;
50483;SDS011;36409;52.168;20.878;2022-08-19T09:08:31;9.50;;;5.87;;
50483;SDS011;36409;52.168;20.878;2022-08-19T09:11:13;11.47;;;5.50;;
50483;SDS011;36409;52.168;20.878;2022-08-19T09:14:10;10.87;;;5.80;;
50483;SDS011;36409;52.168;20.878;2022-08-19T09:17:08;12.43;;;5.50;;
50483;SDS011;36409;52.168;20.878;2022-08-19T09:19:47;11.37;;;5.33;;
50483;SDS011;36409;52.168;20.878;2022-08-19T09:22:19;10.47;;;5.47;;
50483;SDS011;36409;52.168;20.878;2022-08-19T09:24:54;10.73;;;5.50;;
50483;SDS011;36409;52.168;20.878;2022-08-19T09:27:23;16.50;;;5.60;;
50483;SDS011;36409;52.168;20.878;2022-08-19T09:30:12;15.20;;;6.10;;
50483;SDS011;36409;52.168;20.878;2022-08-19T09:32:44;15.40;;;5.33;;
50483;SDS011;36409;52.168;20.878;2022-08-19T09:35:20;10.63;;;5.50;;
50483;SDS011;36409;52.168;20.878;2022-08-19T09:37:51;8.70;;;5.27;;
50483;SDS011;36409;52.168;20.878;2022-08-19T09:40:25;11.30;;;4.90;;
50483;SDS011;36409;52.168;20.878;2022-08-19T09:42:57;8.43;;;5.42;;
50483;SDS011;36409;52.168;20.878;2022-08-19T09:45:36;9.57;;;5.20;;
50483;SDS011;36409;52.168;20.878;2022-08-19T09:48:05;11.47;;;5.80;;
50483;SDS011;36409;52.168;20.878;2022-08-19T09:50:38;10.30;;;5.93;;
50483;SDS011;36409;52.168;20.878;2022-08-19T09:53:20;10.83;;;4.80;;
50483;SDS011;36409;52.168;20.878;2022-08-19T09:55:54;10.13;;;5.20;;
50483;SDS011;36409;52.168;20.878;2022-08-19T09:58:23;9.43;;;5.60;;
50483;SDS011;36409;52.168;20.878;2022-08-19T10:04:11;10.27;;;5.30;;
50483;SDS011;36409;52.168;20.878;2022-08-19T10:06:51;12.30;;;5.20;;
50483;SDS011;36409;52.168;20.878;2022-08-19T10:09:25;14.00;;;5.30;;
50483;SDS011;36409;52.168;20.878;2022-08-19T10:12:34;9.23;;;5.03;;
50483;SDS011;36409;52.168;20.878;2022-08-19T10:15:05;11.50;;;5.20;;
50483;SDS011;36409;52.168;20.878;2022-08-19T10:17:40;11.83;;;5.07;;
50483;SDS011;36409;52.168;20.878;2022-08-19T10:20:22;9.70;;;5.40;;
50483;SDS011;36409;52.168;20.878;2022-08-19T10:22:54;11.97;;;4.97;;
50483;SDS011;36409;52.168;20.878;2022-08-19T10:25:24;16.27;;;5.30;;
50483;SDS011;36409;52.168;20.878;2022-08-19T10:28:05;8.63;;;4.50;;
50483;SDS011;36409;52.168;20.878;2022-08-19T10:30:46;8.20;;;4.97;;
50483;SDS011;36409;52.168;20.878;2022-08-19T10:34:02;11.93;;;4.73;;
50483;SDS011;36409;52.168;20.878;2022-08-19T10:36:33;9.80;;;5.37;;
50483;SDS011;36409;52.168;20.878;2022-08-19T10:39:57;12.73;;;5.80;;
50483;SDS011;36409;52.168;20.878;2022-08-19T10:48:44;11.67;;;5.57;;
50483;SDS011;36409;52.168;20.878;2022-08-19T10:51:13;9.83;;;5.47;;
50483;SDS011;36409;52.168;20.878;2022-08-19T10:54:15;12.40;;;5.10;;
50483;SDS011;36409;52.168;20.878;2022-08-19T10:56:58;11.10;;;5.83;;
50483;SDS011;36409;52.168;20.878;2022-08-19T10:59:28;7.33;;;5.27;;
50483;SDS011;36409;52.168;20.878;2022-08-19T11:02:03;16.53;;;5.47;;
50483;SDS011;36409;52.168;20.878;2022-08-19T11:04:33;8.77;;;5.40;;
50483;SDS011;36409;52.168;20.878;2022-08-19T14:11:35;10.50;;;4.73;;
50483;SDS011;36409;52.168;20.878;2022-08-19T14:18:08;8.73;;;4.80;;
50483;SDS011;36409;52.168;20.878;2022-08-19T14:20:47;12.77;;;4.93;;
50483;SDS011;36409;52.168;20.878;2022-08-19T14:29:28;12.30;;;4.53;;
50483;SDS011;36409;52.168;20.878;2022-08-19T14:41:47;9.20;;;4.67;;
50483;SDS011;36409;52.168;20.878;2022-08-19T14:51:29;10.13;;;4.47;;
50483;SDS011;36409;52.168;20.878;2022-08-19T15:03:03;10.13;;;4.70;;
50483;SDS011;36409;52.168;20.878;2022-08-19T15:05:32;11.63;;;4.50;;
50483;SDS011;36409;52.168;20.878;2022-08-19T15:11:11;9.50;;;4.60;;
50483;SDS011;36409;52.168;20.878;2022-08-19T15:13:49;9.20;;;5.00;;
50483;SDS011;36409;52.168;20.878;2022-08-19T15:16:37;11.00;;;4.70;;
50483;SDS011;36409;52.168;20.878;2022-08-19T15:25:05;14.33;;;4.40;;
50483;SDS011;36409;52.168;20.878;2022-08-19T15:27:46;10.20;;;4.33;;
50483;SDS011;36409;52.168;20.878;2022-08-19T15:30:18;9.43;;;3.80;;
50483;SDS011;36409;52.168;20.878;2022-08-19T15:33:03;11.60;;;4.03;;
50483;SDS011;36409;52.168;20.878;2022-08-19T15:36:00;11.57;;;4.23;;
50483;SDS011;36409;52.168;20.878;2022-08-19T15:38:29;8.60;;;3.90;;
50483;SDS011;36409;52.168;20.878;2022-08-19T15:41:15;8.03;;;4.23;;
50483;SDS011;36409;52.168;20.878;2022-08-19T15:43:52;9.25;;;4.10;;
50483;SDS011;36409;52.168;20.878;2022-08-19T15:46:24;9.30;;;4.00;;
50483;SDS011;36409;52.168;20.878;2022-08-19T15:48:55;10.50;;;3.65;;
50483;SDS011;36409;52.168;20.878;2022-08-19T15:51:28;11.73;;;4.40;;
50483;SDS011;36409;52.168;20.878;2022-08-19T15:53:58;11.77;;;4.27;;
50483;SDS011;36409;52.168;20.878;2022-08-19T15:56:28;13.77;;;4.60;;
50483;SDS011;36409;52.168;20.878;2022-08-19T15:59:11;9.17;;;3.70;;
50483;SDS011;36409;52.168;20.878;2022-08-19T16:02:07;10.27;;;3.97;;
50483;SDS011;36409;52.168;20.878;2022-08-19T16:04:59;8.53;;;4.10;;
50483;SDS011;36409;52.168;20.878;2022-08-19T16:07:46;9.10;;;3.93;;
50483;SDS011;36409;52.168;20.878;2022-08-19T16:10:15;7.50;;;3.50;;
50483;SDS011;36409;52.168;20.878;2022-08-19T16:12:54;8.13;;;4.17;;
50483;SDS011;36409;52.168;20.878;2022-08-19T16:15:25;9.00;;;4.00;;
50483;SDS011;36409;52.168;20.878;2022-08-19T16:17:55;9.03;;;3.87;;
50483;SDS011;36409;52.168;20.878;2022-08-19T16:20:24;9.23;;;4.63;;
50483;SDS011;36409;52.168;20.878;2022-08-19T16:22:54;8.93;;;4.00;;
50483;SDS011;36409;52.168;20.878;2022-08-19T16:25:24;6.57;;;4.10;;
50483;SDS011;36409;52.168;20.878;2022-08-19T16:27:56;9.93;;;4.60;;
50483;SDS011;36409;52.168;20.878;2022-08-19T16:30:35;10.50;;;4.60;;
50483;SDS011;36409;52.168;20.878;2022-08-19T16:33:06;12.40;;;4.63;;
50483;SDS011;36409;52.168;20.878;2022-08-19T16:35:35;10.50;;;4.87;;
50483;SDS011;36409;52.168;20.878;2022-08-19T16:38:05;11.70;;;4.10;;
50483;SDS011;36409;52.168;20.878;2022-08-19T16:40:34;11.50;;;4.40;;
50483;SDS011;36409;52.168;20.878;2022-08-19T16:43:05;10.23;;;4.07;;
50483;SDS011;36409;52.168;20.878;2022-08-19T16:45:36;7.47;;;3.73;;
50483;SDS011;36409;52.168;20.878;2022-08-19T16:48:10;11.90;;;4.00;;
50483;SDS011;36409;52.168;20.878;2022-08-19T16:50:39;7.00;;;3.60;;
50483;SDS011;36409;52.168;20.878;2022-08-19T16:53:17;7.87;;;4.07;;
50483;SDS011;36409;52.168;20.878;2022-08-19T16:55:48;12.87;;;3.87;;
50483;SDS011;36409;52.168;20.878;2022-08-19T16:58:24;9.60;;;4.20;;
50483;SDS011;36409;52.168;20.878;2022-08-19T17:00:56;11.43;;;5.00;;
50483;SDS011;36409;52.168;20.878;2022-08-19T17:03:30;9.47;;;4.80;;
50483;SDS011;36409;52.168;20.878;2022-08-19T17:08:47;8.23;;;4.40;;
50483;SDS011;36409;52.168;20.878;2022-08-19T17:11:18;9.37;;;4.47;;
50483;SDS011;36409;52.168;20.878;2022-08-19T17:13:48;12.13;;;4.30;;
50483;SDS011;36409;52.168;20.878;2022-08-19T17:16:18;9.40;;;3.80;;
50483;SDS011;36409;52.168;20.878;2022-08-19T17:18:50;8.40;;;3.63;;
50483;SDS011;36409;52.168;20.878;2022-08-19T17:21:20;8.17;;;4.30;;
50483;SDS011;36409;52.168;20.878;2022-08-19T17:23:54;12.67;;;4.30;;
50483;SDS011;36409;52.168;20.878;2022-08-19T17:26:23;8.20;;;4.00;;
50483;SDS011;36409;52.168;20.878;2022-08-19T17:28:56;9.20;;;4.40;;
50483;SDS011;36409;52.168;20.878;2022-08-19T17:31:26;8.37;;;4.10;;
50483;SDS011;36409;52.168;20.878;2022-08-19T17:33:57;9.27;;;4.20;;
50483;SDS011;36409;52.168;20.878;2022-08-19T17:36:27;10.13;;;4.20;;
50483;SDS011;36409;52.168;20.878;2022-08-19T17:38:58;8.10;;;3.77;;
50483;SDS011;36409;52.168;20.878;2022-08-19T17:41:28;10.10;;;4.40;;
50483;SDS011;36409;52.168;20.878;2022-08-19T17:44:00;8.23;;;4.30;;
50483;SDS011;36409;52.168;20.878;2022-08-19T17:46:29;12.83;;;4.33;;
50483;SDS011;36409;52.168;20.878;2022-08-19T17:48:58;6.50;;;3.90;;
50483;SDS011;36409;52.168;20.878;2022-08-19T17:51:38;11.60;;;4.53;;
50483;SDS011;36409;52.168;20.878;2022-08-19T17:54:10;8.43;;;4.33;;
50483;SDS011;36409;52.168;20.878;2022-08-19T17:56:41;14.40;;;4.73;;
50483;SDS011;36409;52.168;20.878;2022-08-19T17:59:11;8.13;;;3.97;;
50483;SDS011;36409;52.168;20.878;2022-08-19T18:01:41;8.73;;;4.50;;
50483;SDS011;36409;52.168;20.878;2022-08-19T18:04:22;7.67;;;4.37;;
50483;SDS011;36409;52.168;20.878;2022-08-19T18:06:52;9.90;;;4.53;;
50483;SDS011;36409;52.168;20.878;2022-08-19T18:09:23;11.00;;;4.10;;
50483;SDS011;36409;52.168;20.878;2022-08-19T18:11:54;10.03;;;3.93;;
50483;SDS011;36409;52.168;20.878;2022-08-19T18:14:29;15.97;;;4.60;;
50483;SDS011;36409;52.168;20.878;2022-08-19T18:17:02;9.80;;;4.25;;
50483;SDS011;36409;52.168;20.878;2022-08-19T18:19:35;11.90;;;5.00;;
50483;SDS011;36409;52.168;20.878;2022-08-19T18:22:09;9.53;;;5.07;;
50483;SDS011;36409;52.168;20.878;2022-08-19T18:24:40;8.20;;;4.47;;
50483;SDS011;36409;52.168;20.878;2022-08-19T18:27:12;8.00;;;4.40;;
50483;SDS011;36409;52.168;20.878;2022-08-19T18:29:41;11.03;;;4.77;;
50483;SDS011;36409;52.168;20.878;2022-08-19T18:32:11;8.93;;;4.53;;
50483;SDS011;36409;52.168;20.878;2022-08-19T18:34:42;13.67;;;4.40;;
50483;SDS011;36409;52.168;20.878;2022-08-19T18:37:12;8.50;;;4.00;;
50483;SDS011;36409;52.168;20.878;2022-08-19T18:39:40;7.40;;;4.37;;
50483;SDS011;36409;52.168;20.878;2022-08-19T18:42:27;9.57;;;4.30;;
50483;SDS011;36409;52.168;20.878;2022-08-19T18:45:14;8.70;;;4.57;;
50483;SDS011;36409;52.168;20.878;2022-08-19T18:48:02;9.97;;;4.40;;
50483;SDS011;36409;52.168;20.878;2022-08-19T18:50:55;8.43;;;4.73;;
50483;SDS011;36409;52.168;20.878;2022-08-19T18:53:27;8.03;;;4.47;;
50483;SDS011;36409;52.168;20.878;2022-08-19T18:55:57;11.40;;;4.70;;
50483;SDS011;36409;52.168;20.878;2022-08-19T18:58:27;7.93;;;4.47;;
50483;SDS011;36409;52.168;20.878;2022-08-19T19:01:01;9.35;;;4.85;;
50483;SDS011;36409;52.168;20.878;2022-08-19T19:03:37;11.27;;;4.20;;
50483;SDS011;36409;52.168;20.878;2022-08-19T19:06:09;16.25;;;4.80;;
50483;SDS011;36409;52.168;20.878;2022-08-19T19:08:37;13.03;;;4.70;;
50483;SDS011;36409;52.168;20.878;2022-08-19T19:11:09;8.47;;;4.60;;
50483;SDS011;36409;52.168;20.878;2022-08-19T19:13:38;10.70;;;4.70;;
50483;SDS011;36409;52.168;20.878;2022-08-19T19:16:07;10.47;;;4.70;;
50483;SDS011;36409;52.168;20.878;2022-08-19T19:18:37;10.87;;;5.33;;
50483;SDS011;36409;52.168;20.878;2022-08-19T19:21:06;8.33;;;4.70;;
50483;SDS011;36409;52.168;20.878;2022-08-19T19:23:35;11.90;;;5.03;;
50483;SDS011;36409;52.168;20.878;2022-08-19T19:26:07;8.33;;;4.40;;
50483;SDS011;36409;52.168;20.878;2022-08-19T19:28:36;19.20;;;4.87;;
50483;SDS011;36409;52.168;20.878;2022-08-19T19:31:10;9.23;;;4.90;;
50483;SDS011;36409;52.168;20.878;2022-08-19T19:33:41;10.63;;;4.60;;
50483;SDS011;36409;52.168;20.878;2022-08-19T19:36:11;9.07;;;4.73;;
50483;SDS011;36409;52.168;20.878;2022-08-19T19:38:39;9.73;;;5.10;;
50483;SDS011;36409;52.168;20.878;2022-08-19T19:41:17;11.13;;;4.57;;
50483;SDS011;36409;52.168;20.878;2022-08-19T19:43:49;12.90;;;5.83;;
50483;SDS011;36409;52.168;20.878;2022-08-19T19:46:39;6.20;;;4.47;;
50483;SDS011;36409;52.168;20.878;2022-08-19T19:49:09;12.80;;;4.93;;
50483;SDS011;36409;52.168;20.878;2022-08-19T19:51:38;13.13;;;5.20;;